Time;durP1;ratioP1;P1;durP2;ratioP2;P2;SDS_P1;SDS_P2;PMS_P1;PMS_P2;Temp;Humidity;BMP_temperature;BMP_pressure;BME280_temperature;BME280_humidity;BME280_pressure;Samples;Min_cycle;Max_cycle;Signal;HPM_P1;HPM_P2
2022/04/09 00:02:57;;;;;;;;;16.40;16.00;;;;;13.97;52.71;96601.09;6086574;28;97523;-71
2022/04/09 00:06:03;;;;;;;;;18.00;16.20;;;;;13.92;52.89;96584.13;6086449;28;96430;-70
2022/04/09 00:09:06;;;;;;;;;18.00;16.00;;;;;13.92;52.83;96586.84;6086079;28;96491;-69
2022/04/09 00:12:10;;;;;;;;;17.40;15.00;;;;;13.95;52.67;96599.78;6086229;28;96436;-71
2022/04/09 00:15:16;;;;;;;;;16.40;15.00;;;;;13.89;52.89;96602.56;6085220;28;97092;-70
2022/04/09 00:18:19;;;;;;;;;15.60;13.00;;;;;13.81;53.15;96578.91;6092434;28;97899;-70
2022/04/09 00:21:22;;;;;;;;;15.60;12.00;;;;;13.83;52.79;96602.94;6085426;28;96728;-69
2022/04/09 00:24:25;;;;;;;;;14.00;13.00;;;;;13.88;52.55;96590.13;6085532;28;97778;-71
2022/04/09 00:27:28;;;;;;;;;11.60;10.00;;;;;13.88;52.84;96579.28;6089114;28;96572;-70
2022/04/09 00:30:34;;;;;;;;;12.40;10.40;;;;;13.90;53.00;96576.28;6087959;28;96556;-70
2022/04/09 00:33:37;;;;;;;;;12.40;11.00;;;;;13.93;52.68;96567.56;6089027;28;97870;-70
2022/04/09 00:36:41;;;;;;;;;10.60;10.00;;;;;13.93;52.67;96574.91;6081200;28;97191;-71
2022/04/09 00:39:44;;;;;;;;;11.60;9.80;;;;;13.89;52.98;96580.09;6095645;28;97455;-70
2022/04/09 00:42:47;;;;;;;;;11.20;10.20;;;;;13.80;52.95;96585.41;6173677;28;98497;-71
2022/04/09 00:45:52;;;;;;;;;10.00;7.00;;;;;13.94;52.92;96604.38;6089949;28;96641;-71
2022/04/09 00:48:55;;;;;;;;;7.60;6.60;;;;;13.92;52.70;96601.19;6074564;28;96353;-70
2022/04/09 00:52:03;;;;;;;;;10.40;9.00;;;;;13.89;52.68;96621.53;6089691;28;97304;-71
2022/04/09 00:55:07;;;;;;;;;11.00;10.00;;;;;13.76;52.63;96597.13;6088342;28;97127;-70
2022/04/09 00:58:14;;;;;;;;;9.20;8.80;;;;;13.78;52.54;96586.81;6087810;28;96664;-70
2022/04/09 01:01:21;;;;;;;;;11.40;10.00;;;;;13.81;52.61;96564.56;6087977;28;96468;-71
2022/04/09 01:04:24;;;;;;;;;10.00;9.00;;;;;13.81;52.73;96565.34;6090645;28;97459;-71
2022/04/09 01:07:30;;;;;;;;;9.60;8.60;;;;;13.75;52.83;96555.72;6087079;28;96656;-71
2022/04/09 01:10:34;;;;;;;;;10.00;10.00;;;;;13.76;52.83;96551.91;6087244;28;97475;-71
2022/04/09 01:13:37;;;;;;;;;11.00;9.80;;;;;13.72;53.01;96544.69;6087368;28;98122;-70
2022/04/09 01:16:41;;;;;;;;;9.00;8.00;;;;;13.73;53.33;96549.78;6087566;28;97332;-71
2022/04/09 01:19:47;;;;;;;;;10.20;9.20;;;;;13.76;53.25;96543.78;6086864;28;98064;-70
2022/04/09 01:22:52;;;;;;;;;12.00;9.60;;;;;13.74;53.22;96535.16;6100446;28;96388;-70
2022/04/09 01:25:58;;;;;;;;;9.75;9.75;;;;;13.71;53.03;96541.16;6099548;28;96684;-70
2022/04/09 01:29:03;;;;;;;;;9.60;8.00;;;;;13.60;53.30;96542.44;6090709;28;97360;-69
2022/04/09 01:32:07;;;;;;;;;11.00;9.25;;;;;13.60;53.48;96544.34;6086714;28;97125;-71
2022/04/09 01:35:10;;;;;;;;;11.00;9.00;;;;;13.58;53.38;96523.00;6104022;28;96634;-71
2022/04/09 01:38:15;;;;;;;;;13.00;11.00;;;;;13.57;53.55;96551.16;6086601;28;98927;-69
2022/04/09 01:41:18;;;;;;;;;11.40;11.00;;;;;13.62;53.37;96570.03;6088145;28;96539;-70
2022/04/09 01:44:36;;;;;;;;;13.00;11.60;;;;;13.53;53.29;96566.41;6085297;28;97330;-69
2022/04/09 01:47:42;;;;;;;;;12.20;11.20;;;;;13.61;53.62;96557.59;6089271;28;96462;-70
2022/04/09 01:50:46;;;;;;;;;12.00;11.00;;;;;13.60;53.57;96563.28;6103171;28;96747;-71
2022/04/09 01:53:52;;;;;;;;;17.40;15.60;;;;;13.28;54.48;96554.09;6086743;28;97461;-70
2022/04/09 01:56:55;;;;;;;;;19.60;17.00;;;;;13.24;54.18;96542.22;6089157;28;97415;-70
2022/04/09 01:59:59;;;;;;;;;19.00;16.00;;;;;13.39;54.38;96560.94;6085471;28;97356;-70
2022/04/09 02:03:02;;;;;;;;;20.40;19.00;;;;;13.40;54.20;96556.31;6087359;28;97109;-70
2022/04/09 02:06:05;;;;;;;;;19.40;18.00;;;;;13.28;54.66;96564.91;6082018;28;96763;-70
2022/04/09 02:09:11;;;;;;;;;20.75;17.50;;;;;13.32;54.54;96571.34;6085567;28;98410;-69
2022/04/09 02:12:15;;;;;;;;;20.60;17.40;;;;;13.38;54.59;96564.75;6102469;28;96610;-69
2022/04/09 02:15:19;;;;;;;;;19.00;15.00;;;;;13.42;54.25;96571.19;6071417;28;96530;-71
2022/04/09 02:18:22;;;;;;;;;12.00;11.67;;;;;13.45;53.86;96576.00;6086141;28;97177;-70
2022/04/09 02:21:25;;;;;;;;;10.20;10.00;;;;;13.42;53.80;96565.75;6088080;28;96570;-71
2022/04/09 02:24:30;;;;;;;;;11.00;11.00;;;;;13.38;53.60;96555.81;6104509;28;98031;-70
2022/04/09 02:27:35;;;;;;;;;10.20;10.00;;;;;13.30;53.59;96554.59;6073527;28;96728;-70
2022/04/09 02:30:39;;;;;;;;;12.80;11.80;;;;;13.21;54.36;96552.84;6087143;28;97397;-70
2022/04/09 02:33:46;;;;;;;;;11.00;10.00;;;;;13.07;54.95;96557.38;6086766;28;96736;-69
2022/04/09 02:36:50;;;;;;;;;15.00;11.00;;;;;13.02;54.99;96553.66;6086931;28;97490;-70
2022/04/09 02:39:54;;;;;;;;;14.50;12.50;;;;;13.12;54.76;96530.28;6087156;28;96358;-69
2022/04/09 02:42:58;;;;;;;;;14.25;13.00;;;;;13.12;54.83;96516.75;6071633;28;98594;-69
2022/04/09 02:46:02;;;;;;;;;13.60;11.60;;;;;13.19;54.77;96525.31;6069843;28;99503;-70
2022/04/09 02:49:10;;;;;;;;;13.00;12.00;;;;;13.14;54.71;96523.50;6070652;28;96866;-70
2022/04/09 02:52:13;;;;;;;;;11.40;11.00;;;;;13.13;54.86;96537.31;6070950;28;97999;-70
2022/04/09 02:55:18;;;;;;;;;17.00;13.00;;;;;13.03;55.27;96512.00;6065896;28;97057;-69
2022/04/09 02:58:23;;;;;;;;;14.80;12.80;;;;;12.94;55.42;96483.22;6082519;28;96638;-70
2022/04/09 03:01:27;;;;;;;;;13.20;13.00;;;;;13.00;55.39;96488.22;6070589;28;100149;-70
2022/04/09 03:04:32;;;;;;;;;16.00;13.60;;;;;12.84;56.07;96486.88;6087353;28;96267;-69
2022/04/09 03:07:35;;;;;;;;;15.60;14.00;;;;;12.86;55.83;96464.94;6086747;28;96928;-69
2022/04/09 03:10:40;;;;;;;;;17.00;15.00;;;;;12.79;55.94;96478.84;6086889;28;97495;-69
2022/04/09 03:13:43;;;;;;;;;17.00;14.00;;;;;12.76;56.18;96470.50;6078362;28;97417;-71
2022/04/09 03:16:47;;;;;;;;;16.00;13.00;;;;;12.81;56.33;96470.41;6069584;28;97052;-70
2022/04/09 03:19:50;;;;;;;;;16.20;13.00;;;;;12.66;56.45;96465.28;6069116;28;98294;-70
2022/04/09 03:22:55;;;;;;;;;15.00;14.00;;;;;12.54;56.98;96457.59;6085373;28;96313;-69
2022/04/09 03:26:11;;;;;;;;;20.00;17.00;;;;;12.43;57.36;96446.13;6156038;28;96488;-70
2022/04/09 03:29:22;;;;;;;;;18.40;15.60;;;;;12.57;57.08;96454.31;6090921;28;98435;-70
2022/04/09 03:32:26;;;;;;;;;15.60;13.00;;;;;12.62;57.07;96446.13;6084968;28;97341;-70
2022/04/09 03:35:29;;;;;;;;;22.25;16.00;;;;;12.56;57.39;96425.66;6086465;28;96406;-69
2022/04/09 03:38:34;;;;;;;;;22.00;17.00;;;;;12.52;57.28;96424.66;6085202;28;96470;-70
2022/04/09 03:41:41;;;;;;;;;21.20;18.00;;;;;12.64;57.04;96429.63;6085118;28;97357;-69
2022/04/09 03:44:44;;;;;;;;;22.00;18.00;;;;;12.67;57.06;96418.22;6085940;28;99589;-69
2022/04/09 03:47:48;;;;;;;;;21.00;17.00;;;;;12.74;57.07;96418.66;6069830;28;97663;-69
2022/04/09 03:50:52;;;;;;;;;21.50;18.25;;;;;12.74;56.97;96415.94;6070025;28;96568;-69
2022/04/09 03:53:57;;;;;;;;;19.00;17.40;;;;;12.79;56.98;96405.84;6088059;28;96325;-70
2022/04/09 03:57:04;;;;;;;;;21.00;17.00;;;;;12.89;56.69;96411.09;6070193;28;98710;-71
2022/04/09 04:00:21;;;;;;;;;22.00;18.50;;;;;12.99;56.60;96405.50;6085227;28;97511;-69
2022/04/09 04:03:27;;;;;;;;;19.80;17.00;;;;;12.98;56.51;96397.69;6070077;28;98419;-71
2022/04/09 04:06:32;;;;;;;;;19.60;17.00;;;;;12.93;56.73;96400.47;6086272;28;97333;-69
2022/04/09 04:09:39;;;;;;;;;20.50;17.00;;;;;12.99;56.35;96385.78;6078166;28;97469;-70
2022/04/09 04:12:44;;;;;;;;;20.00;16.20;;;;;12.95;56.59;96387.47;6084406;28;97650;-70
2022/04/09 04:15:50;;;;;;;;;20.25;16.25;;;;;13.02;56.39;96399.50;6085349;28;96563;-71
2022/04/09 04:18:54;;;;;;;;;21.00;17.40;;;;;12.84;56.96;96403.06;6085553;28;98026;-71
2022/04/09 04:21:59;;;;;;;;;16.50;13.50;;;;;12.66;57.65;96384.97;6143654;28;98392;-69
2022/04/09 04:25:03;;;;;;;;;17.00;14.60;;;;;12.54;57.74;96393.56;6161749;28;98325;-69
2022/04/09 04:28:09;;;;;;;;;19.00;16.00;;;;;12.49;57.89;96392.81;6210988;28;96501;-71
2022/04/09 04:31:13;;;;;;;;;16.80;14.80;;;;;12.45;58.12;96381.81;6154048;28;96547;-68
2022/04/09 04:34:17;;;;;;;;;16.00;15.00;;;;;12.41;58.39;96385.41;6084579;28;96623;-69
2022/04/09 04:37:22;;;;;;;;;17.00;15.00;;;;;12.37;58.72;96377.06;6069320;28;98086;-71
2022/04/09 04:40:26;;;;;;;;;17.75;14.25;;;;;12.33;58.65;96377.94;6084019;28;97322;-70
2022/04/09 04:43:38;;;;;;;;;18.80;15.00;;;;;12.34;58.87;96379.56;6062427;28;97657;-70
2022/04/09 04:46:42;;;;;;;;;17.20;14.20;;;;;12.47;58.50;96382.31;6070122;28;96909;-70
2022/04/09 04:49:51;;;;;;;;;15.40;13.40;;;;;12.53;58.76;96374.91;6086265;28;96857;-68
2022/04/09 04:52:55;;;;;;;;;18.60;14.60;;;;;12.72;58.23;96372.19;6069227;28;98075;-69
2022/04/09 04:56:02;;;;;;;;;16.60;15.60;;;;;12.76;58.05;96373.97;6087074;28;96883;-69
2022/04/09 04:59:18;;;;;;;;;19.00;14.80;;;;;12.77;58.17;96382.91;6085839;28;96911;-70
2022/04/09 05:02:21;;;;;;;;;15.25;13.00;;;;;12.78;58.26;96371.00;6068679;28;96915;-69
2022/04/09 05:05:25;;;;;;;;;17.40;15.00;;;;;12.90;57.77;96363.22;6067770;28;97671;-70
2022/04/09 05:08:29;;;;;;;;;19.25;17.00;;;;;13.05;57.66;96354.03;6084294;28;96959;-70
2022/04/09 05:11:32;;;;;;;;;21.00;18.00;;;;;13.17;57.24;96359.78;6086269;28;96473;-69
2022/04/09 05:14:41;;;;;;;;;17.00;15.60;;;;;13.28;56.96;96370.13;6087016;28;96775;-70
2022/04/09 05:17:48;;;;;;;;;19.00;17.00;;;;;13.42;56.89;96383.66;6088504;28;96743;-70
2022/04/09 05:20:52;;;;;;;;;23.00;17.40;;;;;13.48;56.96;96406.81;6070306;28;99505;-71
2022/04/09 05:23:56;;;;;;;;;18.00;14.75;;;;;13.51;56.79;96427.03;6069700;28;96962;-70
2022/04/09 05:27:00;;;;;;;;;19.00;17.60;;;;;13.60;56.50;96434.16;6085717;28;96522;-69
2022/04/09 05:30:09;;;;;;;;;16.00;14.60;;;;;13.71;56.17;96434.78;6085069;28;97109;-70
2022/04/09 05:33:17;;;;;;;;;17.00;15.00;;;;;13.64;56.21;96426.22;6092266;28;97178;-71
2022/04/09 05:36:26;;;;;;;;;19.00;17.00;;;;;13.68;55.97;96421.84;6213008;28;97386;-70
2022/04/09 05:39:32;;;;;;;;;23.00;19.00;;;;;13.65;56.14;96417.81;6202342;28;96769;-69
2022/04/09 05:42:37;;;;;;;;;20.20;18.80;;;;;13.75;56.00;96436.56;6086082;28;96769;-70
2022/04/09 05:45:42;;;;;;;;;21.40;17.00;;;;;13.84;55.70;96453.72;6131380;28;97365;-70
2022/04/09 05:48:49;;;;;;;;;19.00;15.40;;;;;13.88;55.28;96470.16;6095289;28;97770;-70
2022/04/09 05:51:52;;;;;;;;;13.00;11.25;;;;;13.92;54.65;96473.09;6086561;28;96715;-70
2022/04/09 05:54:56;;;;;;;;;11.00;10.60;;;;;13.93;54.70;96458.44;6088060;28;96341;-70
2022/04/09 05:58:00;;;;;;;;;8.00;7.00;;;;;13.95;54.40;96464.34;6205014;28;96556;-71
2022/04/09 06:01:07;;;;;;;;;9.00;7.00;;;;;13.98;54.27;96469.97;6135187;28;97381;-70
2022/04/09 06:04:11;;;;;;;;;9.00;7.00;;;;;14.00;54.17;96472.38;6072078;28;96739;-71
2022/04/09 06:07:15;;;;;;;;;9.00;7.00;;;;;14.04;54.31;96492.31;6071572;28;98356;-70
2022/04/09 06:10:32;;;;;;;;;6.60;6.00;;;;;14.00;53.84;96511.09;6071315;28;99510;-69
2022/04/09 06:13:35;;;;;;;;;7.00;7.00;;;;;14.00;53.65;96515.72;6072144;28;96270;-70
2022/04/09 06:16:41;;;;;;;;;6.00;5.60;;;;;13.88;53.25;96546.78;6199288;28;96795;-70
2022/04/09 06:19:45;;;;;;;;;6.00;5.00;;;;;13.86;53.70;96567.97;6089749;28;97660;-70
2022/04/09 06:22:49;;;;;;;;;4.00;4.00;;;;;13.83;53.50;96616.50;6053556;28;99731;-70
2022/04/09 06:25:55;;;;;;;;;3.00;3.00;;;;;13.59;53.98;96619.34;6048203;28;97648;-71
2022/04/09 06:29:06;;;;;;;;;4.00;3.25;;;;;13.61;53.97;96636.09;6087831;28;97448;-70
2022/04/09 06:32:11;;;;;;;;;3.60;3.00;;;;;13.63;53.52;96647.44;6122671;28;96782;-70
2022/04/09 06:35:15;;;;;;;;;3.00;3.00;;;;;13.61;53.60;96670.47;6083055;28;97524;-70
2022/04/09 06:38:18;;;;;;;;;5.00;4.00;;;;;13.48;53.99;96704.53;6085929;28;96981;-70
2022/04/09 06:41:22;;;;;;;;;2.00;2.00;;;;;13.29;53.23;96723.44;6083439;28;97072;-70
2022/04/09 06:44:25;;;;;;;;;2.80;2.00;;;;;13.06;52.09;96720.75;6092980;28;97560;-69
2022/04/09 06:47:38;;;;;;;;;3.00;3.00;;;;;13.06;51.75;96729.66;6084835;28;97378;-70
2022/04/09 06:50:45;;;;;;;;;2.00;2.00;;;;;12.86;51.00;96741.53;6062487;28;99564;-70
2022/04/09 06:53:48;;;;;;;;;1.00;1.00;;;;;12.77;50.20;96786.53;6166209;28;97424;-69
2022/04/09 06:56:51;;;;;;;;;2.00;2.00;;;;;12.72;50.41;96796.59;6108031;28;96575;-70
2022/04/09 06:59:58;;;;;;;;;1.40;1.40;;;;;12.45;50.77;96810.63;6083734;28;97388;-71
2022/04/09 07:03:03;;;;;;;;;1.00;1.00;;;;;12.48;50.47;96839.78;6143298;28;96891;-71
2022/04/09 07:06:06;;;;;;;;;2.00;2.00;;;;;12.54;50.80;96863.78;6085256;28;97447;-70
2022/04/09 07:09:10;;;;;;;;;2.00;1.00;;;;;12.53;51.25;96881.09;6086960;28;96426;-71
2022/04/09 07:12:13;;;;;;;;;1.00;1.00;;;;;12.44;50.76;96914.41;6094804;28;96375;-69
2022/04/09 07:15:17;;;;;;;;;0.40;0.40;;;;;12.39;50.84;96927.94;6086939;28;97034;-71
2022/04/09 07:18:21;;;;;;;;;1.00;1.00;;;;;12.18;50.69;96929.97;6086531;28;96535;-69
2022/04/09 07:21:24;;;;;;;;;1.00;1.00;;;;;12.17;50.80;96944.56;6081399;28;97427;-70
2022/04/09 07:24:27;;;;;;;;;0.00;0.00;;;;;11.96;49.88;96967.38;6085240;28;98627;-71
2022/04/09 07:27:37;;;;;;;;;1.00;1.00;;;;;11.82;49.81;96990.66;6069457;28;96481;-71
2022/04/09 07:30:42;;;;;;;;;1.00;1.00;;;;;11.85;50.73;97008.97;6086152;28;96427;-70
2022/04/09 07:33:47;;;;;;;;;1.00;1.00;;;;;11.86;50.49;97013.31;6124926;28;99513;-69
2022/04/09 07:36:50;;;;;;;;;0.00;0.00;;;;;11.70;49.80;96999.81;6085547;28;96417;-70
2022/04/09 07:39:53;;;;;;;;;0.00;0.00;;;;;11.67;50.75;97019.28;6086115;28;97833;-71
2022/04/09 07:42:58;;;;;;;;;1.00;1.00;;;;;11.64;50.74;97016.28;6083287;28;99495;-70
2022/04/09 07:46:02;;;;;;;;;1.00;1.00;;;;;11.78;49.99;97040.88;6106169;28;97759;-71
2022/04/09 07:49:07;;;;;;;;;1.00;1.00;;;;;11.73;50.30;97063.25;6066571;28;97411;-71
2022/04/09 07:52:11;;;;;;;;;1.40;1.00;;;;;11.78;50.26;97092.94;6077146;28;96781;-71
2022/04/09 07:55:16;;;;;;;;;1.00;1.00;;;;;11.77;50.64;97114.84;6070044;28;96845;-71
2022/04/09 07:58:20;;;;;;;;;1.00;1.00;;;;;11.73;50.41;97109.16;6065574;28;97073;-71
2022/04/09 08:01:23;;;;;;;;;1.00;1.00;;;;;11.70;50.52;97123.19;6082153;28;96599;-70
2022/04/09 08:04:28;;;;;;;;;1.67;1.67;;;;;11.75;50.56;97146.69;6103927;28;97690;-70
2022/04/09 08:07:32;;;;;;;;;2.00;2.00;;;;;11.70;50.46;97158.25;6074288;28;96451;-70
2022/04/09 08:10:35;;;;;;;;;1.00;1.00;;;;;11.54;50.43;97156.63;6127079;28;97074;-70
2022/04/09 08:13:39;;;;;;;;;2.00;2.00;;;;;11.64;49.97;97173.66;6114746;28;97284;-71
2022/04/09 08:16:42;;;;;;;;;1.75;1.00;;;;;11.50;50.21;97202.25;6191969;28;96577;-69
2022/04/09 08:19:47;;;;;;;;;3.00;3.00;;;;;11.55;50.28;97218.44;6077298;28;99497;-71
2022/04/09 08:22:51;;;;;;;;;2.00;2.00;;;;;11.45;50.43;97231.13;6068571;28;96492;-69
2022/04/09 08:25:56;;;;;;;;;2.25;2.00;;;;;11.48;50.67;97239.50;6076977;28;96474;-70
2022/04/09 08:29:00;;;;;;;;;3.00;2.60;;;;;11.52;50.04;97234.38;6069433;28;96500;-70
2022/04/09 08:32:04;;;;;;;;;5.00;4.00;;;;;11.42;49.83;97248.66;6068964;28;96566;-70
2022/04/09 08:35:09;;;;;;;;;4.00;4.00;;;;;11.51;50.02;97267.81;6134307;28;96313;-71
2022/04/09 08:38:12;;;;;;;;;4.00;4.00;;;;;11.47;49.49;97274.84;6206654;28;96515;-70
2022/04/09 08:41:16;;;;;;;;;4.00;4.00;;;;;11.42;49.86;97278.34;6173540;28;98798;-71
2022/04/09 08:44:21;;;;;;;;;5.00;4.60;;;;;11.44;49.33;97295.06;6085410;28;97621;-70
2022/04/09 08:47:28;;;;;;;;;4.00;4.00;;;;;11.40;49.31;97298.56;6087107;28;98424;-71
2022/04/09 08:50:32;;;;;;;;;5.00;4.80;;;;;11.44;49.52;97291.53;6084545;28;96494;-71
2022/04/09 08:53:38;;;;;;;;;4.00;3.00;;;;;11.60;49.95;97293.22;6133206;28;98443;-71
2022/04/09 08:56:41;;;;;;;;;4.20;4.00;;;;;11.66;49.36;97313.75;6075483;28;97411;-70
2022/04/09 08:59:45;;;;;;;;;4.40;4.00;;;;;11.69;48.66;97324.81;6111619;28;96566;-72
2022/04/09 09:02:53;;;;;;;;;5.00;4.00;;;;;11.61;48.20;97329.94;6175347;28;96883;-72
2022/04/09 09:05:58;;;;;;;;;4.00;3.00;;;;;11.77;48.87;97344.31;6087424;28;97517;-72
2022/04/09 09:09:04;;;;;;;;;4.00;4.00;;;;;11.69;48.70;97340.19;6081926;28;99756;-70
2022/04/09 09:12:08;;;;;;;;;2.80;2.00;;;;;11.81;49.04;97346.22;6086156;28;97071;-71
2022/04/09 09:15:11;;;;;;;;;4.00;4.00;;;;;11.90;48.80;97357.28;6090497;28;96466;-72
2022/04/09 09:18:23;;;;;;;;;3.00;3.00;;;;;11.67;48.66;97378.28;6104574;28;97670;-71
2022/04/09 09:21:28;;;;;;;;;4.40;4.00;;;;;11.77;48.93;97382.09;6082154;28;98824;-71
2022/04/09 09:24:31;;;;;;;;;2.00;2.00;;;;;11.76;48.00;97408.28;6075956;28;96852;-71
2022/04/09 09:27:35;;;;;;;;;5.00;4.00;;;;;11.77;48.47;97433.41;6086438;28;98582;-71
2022/04/09 09:30:48;;;;;;;;;4.67;4.00;;;;;11.74;48.10;97429.31;6097297;28;97755;-71
2022/04/09 09:33:52;;;;;;;;;4.00;4.00;;;;;11.83;47.71;97440.41;6098691;28;96646;-71
2022/04/09 09:37:21;;;;;;;;;4.00;3.00;;;;;11.90;48.03;97443.69;6111296;28;97439;-71
2022/04/09 09:40:42;;;;;;;;;4.20;4.00;;;;;11.92;48.15;97458.56;6108812;28;97407;-72
2022/04/09 09:43:45;;;;;;;;;5.50;5.00;;;;;12.00;47.61;97459.94;6109449;28;97148;-71
2022/04/09 09:46:50;;;;;;;;;4.00;4.00;;;;;12.14;47.31;97463.75;6086407;28;96376;-71
2022/04/09 09:49:55;;;;;;;;;4.00;4.00;;;;;12.27;47.74;97468.66;6077985;28;97153;-71
2022/04/09 09:53:05;;;;;;;;;5.00;5.00;;;;;12.25;46.68;97472.72;6092048;28;97565;-72
2022/04/09 09:56:09;;;;;;;;;5.00;4.40;;;;;12.27;46.73;97478.63;6081204;28;96414;-71
2022/04/09 09:59:14;;;;;;;;;7.00;6.00;;;;;12.10;46.40;97471.59;6093681;28;99456;-71
2022/04/09 10:02:21;;;;;;;;;5.60;5.00;;;;;12.23;46.49;97477.56;6088089;28;97394;-71
2022/04/09 10:05:25;;;;;;;;;6.00;6.00;;;;;12.29;46.46;97479.19;6087636;28;96552;-71
2022/04/09 10:08:33;;;;;;;;;5.75;5.75;;;;;12.34;46.87;97488.13;6087783;28;99411;-71
2022/04/09 10:11:37;;;;;;;;;7.00;6.40;;;;;12.55;46.94;97511.44;6112859;28;97478;-71
2022/04/09 10:14:41;;;;;;;;;5.50;5.50;;;;;12.47;46.03;97522.75;6173123;28;100132;-71
2022/04/09 10:17:44;;;;;;;;;7.00;6.00;;;;;12.46;46.25;97523.81;6094397;28;97848;-71
2022/04/09 10:20:51;;;;;;;;;7.20;7.00;;;;;12.48;46.28;97526.25;6089761;28;97996;-71
2022/04/09 10:23:58;;;;;;;;;8.80;8.20;;;;;12.40;46.06;97551.13;6088672;28;96453;-71
2022/04/09 10:27:04;;;;;;;;;9.00;8.00;;;;;12.32;46.24;97513.78;6133843;28;97776;-71
2022/04/09 10:30:25;;;;;;;;;6.40;6.40;;;;;12.36;46.86;97542.75;6155635;28;97365;-71
2022/04/09 10:33:34;;;;;;;;;8.00;8.00;;;;;12.46;46.56;97547.34;6079282;28;97411;-71
2022/04/09 10:37:03;;;;;;;;;8.00;8.00;;;;;12.42;46.75;97546.25;6097024;28;96947;-72
2022/04/09 10:40:09;;;;;;;;;7.00;7.00;;;;;12.45;46.58;97551.13;6074232;28;97371;-72
2022/04/09 10:43:39;;;;;;;;;10.00;10.00;;;;;12.51;46.96;97548.16;6078661;28;98268;-71
2022/04/09 10:46:52;;;;;;;;;10.75;9.75;;;;;12.41;46.66;97547.34;6074274;28;97281;-70
2022/04/09 10:50:11;;;;;;;;;8.60;8.00;;;;;12.43;47.32;97554.09;6091316;28;97522;-71
2022/04/09 10:53:17;;;;;;;;;9.60;9.00;;;;;12.41;46.63;97553.53;6107577;28;96530;-71
2022/04/09 10:56:24;;;;;;;;;10.20;9.00;;;;;12.20;47.08;97526.72;6080285;28;97691;-72
2022/04/09 10:59:34;;;;;;;;;12.00;10.20;;;;;12.32;46.65;97571.34;6084873;28;96620;-72
2022/04/09 11:02:38;;;;;;;;;11.00;10.60;;;;;12.50;47.11;97565.47;6084529;28;98305;-72
2022/04/09 11:05:43;;;;;;;;;13.00;11.80;;;;;12.40;47.21;97559.22;6079802;28;97151;-70
2022/04/09 11:08:58;;;;;;;;;12.00;11.00;;;;;12.53;46.83;97547.91;6080191;28;98586;-72
2022/04/09 11:12:03;;;;;;;;;13.60;13.00;;;;;12.57;47.19;97552.50;6062628;28;96640;-71
2022/04/09 11:15:08;;;;;;;;;11.80;11.40;;;;;12.74;46.28;97565.81;6062819;28;97409;-71
2022/04/09 11:18:11;;;;;;;;;14.00;13.00;;;;;12.74;46.38;97575.81;6107378;28;97613;-71
2022/04/09 11:21:15;;;;;;;;;14.40;13.00;;;;;12.82;46.32;97596.91;6080587;28;97893;-71
2022/04/09 11:24:18;;;;;;;;;12.20;11.80;;;;;12.89;46.03;97603.69;6068693;28;96989;-71
2022/04/09 11:27:23;;;;;;;;;13.00;12.00;;;;;12.85;46.44;97604.50;6130383;28;98274;-71
2022/04/09 11:30:27;;;;;;;;;12.00;11.60;;;;;12.83;46.29;97607.47;6144142;28;98487;-71
2022/04/09 11:33:30;;;;;;;;;15.20;14.60;;;;;12.88;46.24;97615.59;6092338;28;97405;-71
2022/04/09 11:36:33;;;;;;;;;13.00;12.00;;;;;12.87;45.71;97627.47;6114012;28;97877;-71
2022/04/09 11:39:39;;;;;;;;;16.00;15.00;;;;;12.78;46.14;97630.97;6068282;28;96844;-72
2022/04/09 11:42:48;;;;;;;;;15.80;13.20;;;;;12.24;46.29;97587.25;6079458;28;96426;-72
2022/04/09 11:45:51;;;;;;;;;13.60;13.00;;;;;12.58;46.39;97656.06;6084796;28;96940;-71
2022/04/09 11:49:00;;;;;;;;;14.80;14.00;;;;;12.53;46.48;97656.84;6083650;28;98634;-71
2022/04/09 11:52:04;;;;;;;;;14.00;12.80;;;;;12.53;46.68;97661.44;6085779;28;96928;-71
2022/04/09 11:55:10;;;;;;;;;14.00;13.00;;;;;12.56;46.71;97663.59;6086777;28;96242;-72
2022/04/09 11:58:19;;;;;;;;;14.00;13.00;;;;;12.47;46.46;97662.47;6203922;28;96415;-71
2022/04/09 12:01:23;;;;;;;;;14.00;13.00;;;;;12.31;47.27;97668.91;6189229;28;97370;-72
2022/04/09 12:04:34;;;;;;;;;13.25;13.00;;;;;12.43;47.62;97683.00;6120517;28;96645;-72
2022/04/09 12:07:41;;;;;;;;;15.80;15.20;;;;;12.42;47.48;97694.91;6104140;28;98066;-72
2022/04/09 12:10:55;;;;;;;;;17.25;16.00;;;;;12.27;47.66;97698.31;6090655;28;98363;-69
2022/04/09 12:14:09;;;;;;;;;16.00;15.00;;;;;12.20;48.05;97692.34;6089162;28;96527;-73
2022/04/09 12:17:15;;;;;;;;;15.00;15.00;;;;;11.96;48.68;97691.94;6066011;28;96909;-74
2022/04/09 12:20:33;;;;;;;;;15.20;15.00;;;;;11.97;49.15;97707.03;6093523;28;98411;-72
2022/04/09 12:23:36;;;;;;;;;16.00;14.80;;;;;11.92;49.31;97696.22;6087870;28;96314;-71
2022/04/09 12:26:41;;;;;;;;;14.60;13.60;;;;;11.92;48.82;97703.50;6117755;28;96740;-71
2022/04/09 12:29:53;;;;;;;;;17.20;16.00;;;;;11.98;48.59;97697.88;6088761;28;97474;-72
2022/04/09 12:33:07;;;;;;;;;17.00;15.67;;;;;11.99;48.65;97707.59;6087642;28;97178;-72
2022/04/09 12:36:11;;;;;;;;;17.00;15.60;;;;;12.06;48.74;97710.91;6087986;28;97369;-72
2022/04/09 12:39:33;;;;;;;;;16.60;15.60;;;;;12.12;47.53;97701.75;6136796;28;96282;-72
2022/04/09 12:42:37;;;;;;;;;14.00;13.00;;;;;12.36;47.42;97704.06;6093333;28;96346;-70
2022/04/09 12:45:43;;;;;;;;;17.00;16.00;;;;;12.51;47.27;97709.56;6078933;28;96753;-72
2022/04/09 12:48:49;;;;;;;;;19.00;17.00;;;;;12.64;47.29;97692.03;6097799;28;96547;-71
2022/04/09 12:51:53;;;;;;;;;16.25;16.00;;;;;12.71;46.45;97704.22;6093958;28;96506;-72
2022/04/09 12:54:56;;;;;;;;;20.20;18.20;;;;;12.74;46.24;97684.78;6094550;28;97426;-72
2022/04/09 12:58:02;;;;;;;;;20.00;18.25;;;;;12.91;46.36;97689.97;6093372;28;97330;-72
2022/04/09 13:01:08;;;;;;;;;17.20;15.20;;;;;13.01;46.05;97690.00;6089777;28;96951;-72
2022/04/09 13:04:11;;;;;;;;;16.00;15.00;;;;;13.18;45.80;97682.50;6111943;28;96223;-72
2022/04/09 13:07:14;;;;;;;;;16.60;15.00;;;;;13.15;44.71;97695.75;6090172;28;100127;-72
2022/04/09 13:10:18;;;;;;;;;20.25;18.25;;;;;12.88;45.14;97682.41;6093890;28;96353;-71
2022/04/09 13:13:21;;;;;;;;;17.80;17.80;;;;;12.88;45.59;97699.44;6092300;28;96377;-73
2022/04/09 13:16:26;;;;;;;;;21.60;19.60;;;;;12.56;45.87;97693.34;6089014;28;99868;-71
2022/04/09 13:19:33;;;;;;;;;19.60;19.00;;;;;12.77;45.99;97721.28;6103393;28;98337;-71
2022/04/09 13:22:37;;;;;;;;;23.00;21.00;;;;;12.73;46.07;97731.00;6074710;28;97988;-72
2022/04/09 13:25:40;;;;;;;;;24.40;20.00;;;;;12.62;46.31;97740.97;6092454;28;96357;-71
2022/04/09 13:28:43;;;;;;;;;21.40;20.40;;;;;12.69;46.59;97730.72;6095173;28;97094;-72
2022/04/09 13:31:48;;;;;;;;;23.60;21.40;;;;;12.72;46.32;97718.56;6088119;28;97421;-72
2022/04/09 13:34:51;;;;;;;;;24.60;23.00;;;;;12.76;46.09;97725.88;6062393;28;99901;-71
2022/04/09 13:37:55;;;;;;;;;21.00;18.00;;;;;12.84;45.66;97716.47;6083837;28;98058;-73
2022/04/09 13:40:58;;;;;;;;;25.00;21.00;;;;;12.76;45.41;97720.47;6086255;28;96970;-72
2022/04/09 13:44:02;;;;;;;;;24.80;22.00;;;;;12.79;45.60;97719.97;6067645;28;98507;-70
2022/04/09 13:47:08;;;;;;;;;15.00;14.50;;;;;12.36;45.75;97704.06;6087774;28;97354;-71
2022/04/09 13:50:12;;;;;;;;;19.40;16.40;;;;;12.17;46.76;97722.56;6086196;28;97383;-71
2022/04/09 13:53:15;;;;;;;;;18.60;17.00;;;;;12.31;47.68;97720.25;6087576;28;99382;-71
2022/04/09 13:56:18;;;;;;;;;15.40;14.00;;;;;12.35;46.17;97710.53;6094993;28;97431;-71
2022/04/09 13:59:22;;;;;;;;;15.00;13.40;;;;;12.49;46.10;97730.63;6082763;28;97900;-71
2022/04/09 14:02:27;;;;;;;;;13.60;12.60;;;;;12.52;45.79;97732.78;6080813;28;97573;-70
2022/04/09 14:05:31;;;;;;;;;11.40;11.00;;;;;12.56;46.11;97731.19;6088923;28;98961;-71
2022/04/09 14:08:34;;;;;;;;;10.00;10.00;;;;;12.53;46.09;97734.44;6085081;28;96827;-71
2022/04/09 14:11:37;;;;;;;;;11.00;10.20;;;;;12.65;46.21;97732.34;6084179;28;96719;-71
2022/04/09 14:14:41;;;;;;;;;10.00;9.00;;;;;12.78;45.63;97737.25;6066269;28;99578;-70
2022/04/09 14:17:45;;;;;;;;;9.00;8.00;;;;;12.86;44.33;97730.53;6082117;28;96543;-72
2022/04/09 14:20:48;;;;;;;;;11.00;10.00;;;;;12.99;44.26;97738.16;6070664;28;97095;-71
2022/04/09 14:23:59;;;;;;;;;10.00;10.00;;;;;13.05;44.65;97744.41;6071752;28;96593;-70